sensor_id;sensor_type;location;lat;lon;timestamp;P1;durP1;ratioP1;P2;durP2;ratioP2
47259;SDS011;32999;52.412;4.890;2023-05-15T00:01:33;20.70;;;14.00;;
47259;SDS011;32999;52.412;4.890;2023-05-15T00:06:38;25.88;;;13.77;;
47259;SDS011;32999;52.412;4.890;2023-05-15T00:11:47;21.02;;;13.02;;
47259;SDS011;32999;52.412;4.890;2023-05-15T00:16:49;23.38;;;12.73;;
47259;SDS011;32999;52.412;4.890;2023-05-15T00:21:52;20.73;;;12.55;;
47259;SDS011;32999;52.412;4.890;2023-05-15T00:26:58;20.38;;;13.02;;
47259;SDS011;32999;52.412;4.890;2023-05-15T00:32:00;21.73;;;14.20;;
47259;SDS011;32999;52.412;4.890;2023-05-15T00:37:04;23.65;;;13.35;;
47259;SDS011;32999;52.412;4.890;2023-05-15T00:42:05;22.92;;;13.13;;
47259;SDS011;32999;52.412;4.890;2023-05-15T00:47:08;18.80;;;12.38;;
47259;SDS011;32999;52.412;4.890;2023-05-15T00:52:19;22.13;;;13.75;;
47259;SDS011;32999;52.412;4.890;2023-05-15T00:57:30;23.23;;;13.35;;
47259;SDS011;32999;52.412;4.890;2023-05-15T01:02:31;22.10;;;12.85;;
47259;SDS011;32999;52.412;4.890;2023-05-15T01:07:37;19.48;;;12.13;;
47259;SDS011;32999;52.412;4.890;2023-05-15T01:12:41;21.90;;;11.68;;
47259;SDS011;32999;52.412;4.890;2023-05-15T01:17:47;21.23;;;11.25;;
47259;SDS011;32999;52.412;4.890;2023-05-15T01:23:05;22.17;;;11.52;;
47259;SDS011;32999;52.412;4.890;2023-05-15T01:28:25;17.92;;;11.13;;
47259;SDS011;32999;52.412;4.890;2023-05-15T01:33:32;15.63;;;11.23;;
47259;SDS011;32999;52.412;4.890;2023-05-15T01:38:36;17.93;;;11.57;;
47259;SDS011;32999;52.412;4.890;2023-05-15T01:43:43;18.10;;;10.93;;
47259;SDS011;32999;52.412;4.890;2023-05-15T01:48:47;18.00;;;10.80;;
47259;SDS011;32999;52.412;4.890;2023-05-15T01:53:50;17.63;;;10.90;;
47259;SDS011;32999;52.412;4.890;2023-05-15T01:59:01;17.52;;;11.45;;
47259;SDS011;32999;52.412;4.890;2023-05-15T02:04:06;26.20;;;13.90;;
47259;SDS011;32999;52.412;4.890;2023-05-15T02:09:08;17.05;;;12.23;;
47259;SDS011;32999;52.412;4.890;2023-05-15T02:14:12;21.63;;;13.45;;
47259;SDS011;32999;52.412;4.890;2023-05-15T02:19:15;21.57;;;13.43;;
47259;SDS011;32999;52.412;4.890;2023-05-15T02:24:26;25.52;;;12.88;;
47259;SDS011;32999;52.412;4.890;2023-05-15T02:29:36;24.58;;;13.98;;
47259;SDS011;32999;52.412;4.890;2023-05-15T02:34:43;19.27;;;11.07;;
47259;SDS011;32999;52.412;4.890;2023-05-15T02:39:47;17.48;;;12.18;;
47259;SDS011;32999;52.412;4.890;2023-05-15T02:45:03;20.80;;;11.25;;
47259;SDS011;32999;52.412;4.890;2023-05-15T02:50:08;14.82;;;10.05;;
47259;SDS011;32999;52.412;4.890;2023-05-15T02:55:13;15.40;;;10.20;;
47259;SDS011;32999;52.412;4.890;2023-05-15T03:00:17;12.48;;;9.50;;
47259;SDS011;32999;52.412;4.890;2023-05-15T03:05:19;16.17;;;10.18;;
47259;SDS011;32999;52.412;4.890;2023-05-15T03:10:20;13.75;;;10.73;;
47259;SDS011;32999;52.412;4.890;2023-05-15T03:15:25;16.42;;;10.40;;
47259;SDS011;32999;52.412;4.890;2023-05-15T03:20:27;16.63;;;11.17;;
47259;SDS011;32999;52.412;4.890;2023-05-15T03:25:31;14.73;;;10.85;;
47259;SDS011;32999;52.412;4.890;2023-05-15T03:30:42;17.17;;;10.25;;
47259;SDS011;32999;52.412;4.890;2023-05-15T03:35:49;21.17;;;12.35;;
47259;SDS011;32999;52.412;4.890;2023-05-15T03:40:57;21.75;;;13.10;;
47259;SDS011;32999;52.412;4.890;2023-05-15T03:46:04;19.13;;;12.80;;
47259;SDS011;32999;52.412;4.890;2023-05-15T03:51:20;22.25;;;14.18;;
47259;SDS011;32999;52.412;4.890;2023-05-15T03:56:21;21.00;;;13.85;;
47259;SDS011;32999;52.412;4.890;2023-05-15T04:01:24;22.33;;;14.20;;
47259;SDS011;32999;52.412;4.890;2023-05-15T04:06:26;15.77;;;11.13;;
47259;SDS011;32999;52.412;4.890;2023-05-15T04:11:30;24.42;;;12.77;;
47259;SDS011;32999;52.412;4.890;2023-05-15T04:16:35;17.60;;;10.75;;
47259;SDS011;32999;52.412;4.890;2023-05-15T04:21:40;22.55;;;13.13;;
47259;SDS011;32999;52.412;4.890;2023-05-15T04:26:46;14.68;;;10.45;;
47259;SDS011;32999;52.412;4.890;2023-05-15T04:31:48;13.25;;;10.48;;
47259;SDS011;32999;52.412;4.890;2023-05-15T04:36:50;15.52;;;9.88;;
47259;SDS011;32999;52.412;4.890;2023-05-15T04:41:52;16.30;;;11.05;;
47259;SDS011;32999;52.412;4.890;2023-05-15T04:46:58;14.80;;;10.35;;
47259;SDS011;32999;52.412;4.890;2023-05-15T04:52:00;13.63;;;10.15;;
47259;SDS011;32999;52.412;4.890;2023-05-15T04:57:12;14.63;;;11.10;;
47259;SDS011;32999;52.412;4.890;2023-05-15T05:02:15;14.68;;;11.15;;
47259;SDS011;32999;52.412;4.890;2023-05-15T05:07:16;18.17;;;10.82;;
47259;SDS011;32999;52.412;4.890;2023-05-15T05:12:18;13.30;;;10.70;;
47259;SDS011;32999;52.412;4.890;2023-05-15T05:17:21;12.15;;;9.48;;
47259;SDS011;32999;52.412;4.890;2023-05-15T05:22:22;15.73;;;10.95;;
47259;SDS011;32999;52.412;4.890;2023-05-15T05:27:24;11.68;;;9.50;;
47259;SDS011;32999;52.412;4.890;2023-05-15T05:32:27;15.77;;;9.98;;
47259;SDS011;32999;52.412;4.890;2023-05-15T05:37:28;13.68;;;9.95;;
47259;SDS011;32999;52.412;4.890;2023-05-15T05:42:30;13.25;;;10.27;;
47259;SDS011;32999;52.412;4.890;2023-05-15T05:47:32;14.10;;;9.15;;
47259;SDS011;32999;52.412;4.890;2023-05-15T05:52:34;12.93;;;8.82;;
47259;SDS011;32999;52.412;4.890;2023-05-15T05:57:35;15.30;;;10.20;;
47259;SDS011;32999;52.412;4.890;2023-05-15T06:02:38;16.20;;;12.48;;
47259;SDS011;32999;52.412;4.890;2023-05-15T06:07:40;21.48;;;13.85;;
47259;SDS011;32999;52.412;4.890;2023-05-15T06:12:42;22.38;;;15.57;;
47259;SDS011;32999;52.412;4.890;2023-05-15T06:17:45;21.88;;;14.98;;
47259;SDS011;32999;52.412;4.890;2023-05-15T06:22:46;27.70;;;17.98;;
47259;SDS011;32999;52.412;4.890;2023-05-15T06:27:48;29.67;;;17.65;;
47259;SDS011;32999;52.412;4.890;2023-05-15T06:32:51;27.30;;;17.15;;
47259;SDS011;32999;52.412;4.890;2023-05-15T06:37:53;25.42;;;17.33;;
47259;SDS011;32999;52.412;4.890;2023-05-15T06:42:54;22.63;;;15.30;;
47259;SDS011;32999;52.412;4.890;2023-05-15T06:47:57;23.75;;;14.68;;
47259;SDS011;32999;52.412;4.890;2023-05-15T06:52:59;26.90;;;15.02;;
47259;SDS011;32999;52.412;4.890;2023-05-15T06:58:00;19.15;;;13.75;;
47259;SDS011;32999;52.412;4.890;2023-05-15T07:03:03;23.85;;;15.50;;
47259;SDS011;32999;52.412;4.890;2023-05-15T07:08:05;23.95;;;14.82;;
47259;SDS011;32999;52.412;4.890;2023-05-15T07:13:07;26.25;;;17.38;;
47259;SDS011;32999;52.412;4.890;2023-05-15T07:18:10;25.48;;;17.00;;
47259;SDS011;32999;52.412;4.890;2023-05-15T07:23:12;30.50;;;18.50;;
47259;SDS011;32999;52.412;4.890;2023-05-15T07:28:13;25.20;;;17.50;;
47259;SDS011;32999;52.412;4.890;2023-05-15T07:33:16;22.75;;;15.43;;
47259;SDS011;32999;52.412;4.890;2023-05-15T07:38:21;22.73;;;14.18;;
47259;SDS011;32999;52.412;4.890;2023-05-15T07:43:34;23.27;;;14.90;;
47259;SDS011;32999;52.412;4.890;2023-05-15T07:48:41;22.00;;;14.20;;
47259;SDS011;32999;52.412;4.890;2023-05-15T07:53:43;23.85;;;14.15;;
47259;SDS011;32999;52.412;4.890;2023-05-15T07:58:47;29.52;;;16.15;;
47259;SDS011;32999;52.412;4.890;2023-05-15T08:03:57;23.02;;;14.45;;
47259;SDS011;32999;52.412;4.890;2023-05-15T08:08:59;28.90;;;16.27;;
47259;SDS011;32999;52.412;4.890;2023-05-15T08:14:00;24.08;;;16.13;;
47259;SDS011;32999;52.412;4.890;2023-05-15T08:19:04;22.33;;;13.63;;
47259;SDS011;32999;52.412;4.890;2023-05-15T08:24:08;24.52;;;14.95;;
47259;SDS011;32999;52.412;4.890;2023-05-15T08:29:11;26.30;;;15.00;;
47259;SDS011;32999;52.412;4.890;2023-05-15T08:34:29;19.45;;;12.60;;
47259;SDS011;32999;52.412;4.890;2023-05-15T08:39:37;19.17;;;12.77;;
47259;SDS011;32999;52.412;4.890;2023-05-15T08:44:52;18.00;;;12.45;;
47259;SDS011;32999;52.412;4.890;2023-05-15T08:49:57;19.88;;;12.70;;
47259;SDS011;32999;52.412;4.890;2023-05-15T08:55:12;16.83;;;11.90;;
47259;SDS011;32999;52.412;4.890;2023-05-15T09:00:14;20.05;;;14.50;;
47259;SDS011;32999;52.412;4.890;2023-05-15T09:05:17;20.83;;;13.30;;
47259;SDS011;32999;52.412;4.890;2023-05-15T09:10:19;23.08;;;14.35;;
47259;SDS011;32999;52.412;4.890;2023-05-15T09:15:23;20.60;;;13.63;;
47259;SDS011;32999;52.412;4.890;2023-05-15T09:20:28;18.58;;;13.10;;
47259;SDS011;32999;52.412;4.890;2023-05-15T09:30:31;22.80;;;15.27;;
47259;SDS011;32999;52.412;4.890;2023-05-15T09:35:35;24.23;;;15.13;;
47259;SDS011;32999;52.412;4.890;2023-05-15T09:40:38;21.43;;;14.27;;
47259;SDS011;32999;52.412;4.890;2023-05-15T09:45:46;23.90;;;14.30;;
47259;SDS011;32999;52.412;4.890;2023-05-15T09:50:49;25.33;;;14.77;;
47259;SDS011;32999;52.412;4.890;2023-05-15T09:55:51;28.63;;;17.42;;
47259;SDS011;32999;52.412;4.890;2023-05-15T10:00:53;25.70;;;17.85;;
47259;SDS011;32999;52.412;4.890;2023-05-15T10:05:59;24.42;;;17.60;;
47259;SDS011;32999;52.412;4.890;2023-05-15T10:11:03;21.13;;;15.43;;
47259;SDS011;32999;52.412;4.890;2023-05-15T10:16:06;21.70;;;14.80;;
47259;SDS011;32999;52.412;4.890;2023-05-15T10:21:09;21.65;;;13.13;;
47259;SDS011;32999;52.412;4.890;2023-05-15T10:26:12;20.60;;;12.88;;
47259;SDS011;32999;52.412;4.890;2023-05-15T10:31:15;14.43;;;11.23;;
47259;SDS011;32999;52.412;4.890;2023-05-15T10:36:19;16.55;;;11.98;;
47259;SDS011;32999;52.412;4.890;2023-05-15T10:41:21;16.52;;;10.77;;
47259;SDS011;32999;52.412;4.890;2023-05-15T10:46:23;11.93;;;8.90;;
47259;SDS011;32999;52.412;4.890;2023-05-15T10:51:26;12.77;;;9.25;;
47259;SDS011;32999;52.412;4.890;2023-05-15T10:56:28;14.80;;;8.80;;
47259;SDS011;32999;52.412;4.890;2023-05-15T11:01:30;11.77;;;7.63;;
47259;SDS011;32999;52.412;4.890;2023-05-15T11:06:33;8.18;;;6.38;;
47259;SDS011;32999;52.412;4.890;2023-05-15T11:11:53;8.02;;;6.30;;
47259;SDS011;32999;52.412;4.890;2023-05-15T11:16:56;8.25;;;5.82;;
47259;SDS011;32999;52.412;4.890;2023-05-15T11:22:00;19.77;;;6.95;;
47259;SDS011;32999;52.412;4.890;2023-05-15T11:27:02;6.33;;;4.33;;
47259;SDS011;32999;52.412;4.890;2023-05-15T11:32:05;8.05;;;4.22;;
47259;SDS011;32999;52.412;4.890;2023-05-15T11:37:28;8.73;;;5.28;;
47259;SDS011;32999;52.412;4.890;2023-05-15T11:42:30;6.30;;;3.97;;
47259;SDS011;32999;52.412;4.890;2023-05-15T11:47:31;9.20;;;5.32;;
47259;SDS011;32999;52.412;4.890;2023-05-15T11:52:34;9.80;;;6.30;;
47259;SDS011;32999;52.412;4.890;2023-05-15T11:57:36;14.77;;;7.93;;
47259;SDS011;32999;52.412;4.890;2023-05-15T12:02:38;14.13;;;8.50;;
47259;SDS011;32999;52.412;4.890;2023-05-15T12:07:41;18.92;;;8.68;;
47259;SDS011;32999;52.412;4.890;2023-05-15T12:12:47;19.35;;;8.77;;
47259;SDS011;32999;52.412;4.890;2023-05-15T12:17:50;14.90;;;8.10;;
47259;SDS011;32999;52.412;4.890;2023-05-15T12:22:53;14.52;;;7.38;;
47259;SDS011;32999;52.412;4.890;2023-05-15T12:27:54;12.20;;;6.85;;
47259;SDS011;32999;52.412;4.890;2023-05-15T12:32:59;12.93;;;5.40;;
47259;SDS011;32999;52.412;4.890;2023-05-15T12:38:03;10.07;;;3.55;;
47259;SDS011;32999;52.412;4.890;2023-05-15T12:43:05;4.40;;;2.60;;
47259;SDS011;32999;52.412;4.890;2023-05-15T12:48:07;4.28;;;2.20;;
47259;SDS011;32999;52.412;4.890;2023-05-15T12:53:15;8.38;;;2.90;;
47259;SDS011;32999;52.412;4.890;2023-05-15T12:58:16;8.35;;;2.65;;
47259;SDS011;32999;52.412;4.890;2023-05-15T13:03:18;3.00;;;2.10;;
47259;SDS011;32999;52.412;4.890;2023-05-15T13:08:22;3.03;;;1.60;;
47259;SDS011;32999;52.412;4.890;2023-05-15T13:13:23;4.47;;;2.03;;
47259;SDS011;32999;52.412;4.890;2023-05-15T13:18:25;6.65;;;1.83;;
47259;SDS011;32999;52.412;4.890;2023-05-15T13:23:28;9.35;;;2.30;;
47259;SDS011;32999;52.412;4.890;2023-05-15T13:28:29;4.45;;;1.98;;
47259;SDS011;32999;52.412;4.890;2023-05-15T13:33:30;6.15;;;2.00;;
47259;SDS011;32999;52.412;4.890;2023-05-15T13:38:34;6.63;;;2.10;;
47259;SDS011;32999;52.412;4.890;2023-05-15T13:43:35;1.95;;;1.20;;
47259;SDS011;32999;52.412;4.890;2023-05-15T13:48:37;4.13;;;1.38;;
47259;SDS011;32999;52.412;4.890;2023-05-15T13:53:40;6.10;;;1.48;;
47259;SDS011;32999;52.412;4.890;2023-05-15T13:58:41;5.03;;;1.20;;
47259;SDS011;32999;52.412;4.890;2023-05-15T14:03:43;2.00;;;1.08;;
47259;SDS011;32999;52.412;4.890;2023-05-15T14:08:46;2.42;;;1.10;;
47259;SDS011;32999;52.412;4.890;2023-05-15T14:13:47;3.38;;;1.30;;
47259;SDS011;32999;52.412;4.890;2023-05-15T14:18:49;4.55;;;1.48;;
47259;SDS011;32999;52.412;4.890;2023-05-15T14:23:51;5.00;;;1.35;;
47259;SDS011;32999;52.412;4.890;2023-05-15T14:28:53;4.90;;;1.48;;
47259;SDS011;32999;52.412;4.890;2023-05-15T14:33:54;4.22;;;1.40;;
47259;SDS011;32999;52.412;4.890;2023-05-15T14:38:57;5.90;;;1.80;;
47259;SDS011;32999;52.412;4.890;2023-05-15T14:43:59;5.95;;;1.83;;
47259;SDS011;32999;52.412;4.890;2023-05-15T14:49:00;5.28;;;1.65;;
47259;SDS011;32999;52.412;4.890;2023-05-15T14:54:03;7.10;;;2.00;;
47259;SDS011;32999;52.412;4.890;2023-05-15T14:59:05;5.22;;;2.17;;
47259;SDS011;32999;52.412;4.890;2023-05-15T15:04:06;5.22;;;1.33;;
47259;SDS011;32999;52.412;4.890;2023-05-15T15:09:09;2.80;;;1.33;;
47259;SDS011;32999;52.412;4.890;2023-05-15T15:14:11;5.70;;;1.30;;
47259;SDS011;32999;52.412;4.890;2023-05-15T15:19:12;7.47;;;1.90;;
47259;SDS011;32999;52.412;4.890;2023-05-15T15:24:15;6.63;;;1.85;;
47259;SDS011;32999;52.412;4.890;2023-05-15T15:29:16;5.78;;;1.50;;
47259;SDS011;32999;52.412;4.890;2023-05-15T15:34:18;4.35;;;1.25;;
47259;SDS011;32999;52.412;4.890;2023-05-15T15:39:22;5.35;;;2.38;;
47259;SDS011;32999;52.412;4.890;2023-05-15T15:44:23;6.53;;;1.70;;
47259;SDS011;32999;52.412;4.890;2023-05-15T15:49:26;8.88;;;2.08;;
47259;SDS011;32999;52.412;4.890;2023-05-15T15:54:29;8.48;;;1.48;;
47259;SDS011;32999;52.412;4.890;2023-05-15T15:59:34;6.13;;;1.63;;
47259;SDS011;32999;52.412;4.890;2023-05-15T16:04:45;6.25;;;1.48;;
47259;SDS011;32999;52.412;4.890;2023-05-15T16:09:48;8.60;;;1.75;;
47259;SDS011;32999;52.412;4.890;2023-05-15T16:14:49;12.27;;;2.10;;
47259;SDS011;32999;52.412;4.890;2023-05-15T16:19:50;10.23;;;1.80;;
47259;SDS011;32999;52.412;4.890;2023-05-15T16:24:53;13.90;;;2.38;;
47259;SDS011;32999;52.412;4.890;2023-05-15T16:29:55;11.98;;;2.05;;
47259;SDS011;32999;52.412;4.890;2023-05-15T16:34:56;6.70;;;1.75;;
47259;SDS011;32999;52.412;4.890;2023-05-15T16:39:59;15.80;;;2.30;;
47259;SDS011;32999;52.412;4.890;2023-05-15T16:45:01;12.05;;;1.95;;
47259;SDS011;32999;52.412;4.890;2023-05-15T16:50:03;9.50;;;1.73;;
47259;SDS011;32999;52.412;4.890;2023-05-15T16:55:06;14.35;;;2.92;;
47259;SDS011;32999;52.412;4.890;2023-05-15T17:00:09;7.82;;;1.67;;
47259;SDS011;32999;52.412;4.890;2023-05-15T17:05:11;12.65;;;1.83;;
47259;SDS011;32999;52.412;4.890;2023-05-15T17:10:15;14.93;;;2.45;;
47259;SDS011;32999;52.412;4.890;2023-05-15T17:15:16;11.10;;;1.88;;
47259;SDS011;32999;52.412;4.890;2023-05-15T17:20:18;16.25;;;1.70;;
47259;SDS011;32999;52.412;4.890;2023-05-15T17:25:21;7.95;;;1.63;;
47259;SDS011;32999;52.412;4.890;2023-05-15T17:30:23;8.77;;;1.40;;
47259;SDS011;32999;52.412;4.890;2023-05-15T17:35:24;5.70;;;1.70;;
47259;SDS011;32999;52.412;4.890;2023-05-15T17:40:27;7.35;;;1.20;;
47259;SDS011;32999;52.412;4.890;2023-05-15T17:45:28;8.60;;;1.45;;
47259;SDS011;32999;52.412;4.890;2023-05-15T17:50:30;5.15;;;1.52;;
47259;SDS011;32999;52.412;4.890;2023-05-15T17:55:34;7.88;;;1.50;;
47259;SDS011;32999;52.412;4.890;2023-05-15T18:00:36;9.43;;;1.20;;
47259;SDS011;32999;52.412;4.890;2023-05-15T18:05:37;4.32;;;0.93;;
47259;SDS011;32999;52.412;4.890;2023-05-15T18:10:40;5.45;;;0.80;;
47259;SDS011;32999;52.412;4.890;2023-05-15T18:15:55;10.73;;;1.10;;
47259;SDS011;32999;52.412;4.890;2023-05-15T18:21:11;2.88;;;0.63;;
47259;SDS011;32999;52.412;4.890;2023-05-15T18:26:15;6.80;;;1.40;;
47259;SDS011;32999;52.412;4.890;2023-05-15T18:31:16;4.95;;;1.00;;
47259;SDS011;32999;52.412;4.890;2023-05-15T18:36:18;7.03;;;1.40;;
47259;SDS011;32999;52.412;4.890;2023-05-15T18:41:21;5.85;;;1.02;;
47259;SDS011;32999;52.412;4.890;2023-05-15T18:46:22;4.35;;;0.90;;
47259;SDS011;32999;52.412;4.890;2023-05-15T18:51:26;8.60;;;1.40;;
47259;SDS011;32999;52.412;4.890;2023-05-15T18:56:29;9.00;;;1.60;;
47259;SDS011;32999;52.412;4.890;2023-05-15T19:01:30;4.47;;;0.80;;
47259;SDS011;32999;52.412;4.890;2023-05-15T19:06:31;12.00;;;1.80;;
47259;SDS011;32999;52.412;4.890;2023-05-15T19:11:34;9.95;;;1.83;;
47259;SDS011;32999;52.412;4.890;2023-05-15T19:16:36;9.18;;;1.88;;
47259;SDS011;32999;52.412;4.890;2023-05-15T19:21:37;10.60;;;2.03;;
47259;SDS011;32999;52.412;4.890;2023-05-15T19:26:40;11.18;;;2.05;;
47259;SDS011;32999;52.412;4.890;2023-05-15T19:31:41;9.80;;;1.55;;
47259;SDS011;32999;52.412;4.890;2023-05-15T19:36:44;13.55;;;2.20;;
47259;SDS011;32999;52.412;4.890;2023-05-15T19:41:47;11.77;;;2.03;;
47259;SDS011;32999;52.412;4.890;2023-05-15T19:46:49;9.15;;;2.83;;
47259;SDS011;32999;52.412;4.890;2023-05-15T19:51:50;12.32;;;2.75;;
47259;SDS011;32999;52.412;4.890;2023-05-15T19:56:54;11.60;;;3.03;;
47259;SDS011;32999;52.412;4.890;2023-05-15T20:01:57;12.43;;;2.70;;
47259;SDS011;32999;52.412;4.890;2023-05-15T20:07:00;15.25;;;3.05;;
47259;SDS011;32999;52.412;4.890;2023-05-15T20:12:03;15.70;;;2.42;;
47259;SDS011;32999;52.412;4.890;2023-05-15T20:17:05;14.18;;;3.15;;
47259;SDS011;32999;52.412;4.890;2023-05-15T20:22:07;9.82;;;1.67;;
47259;SDS011;32999;52.412;4.890;2023-05-15T20:27:10;11.73;;;3.10;;
47259;SDS011;32999;52.412;4.890;2023-05-15T20:32:12;9.70;;;2.08;;
47259;SDS011;32999;52.412;4.890;2023-05-15T20:37:14;13.05;;;1.90;;
47259;SDS011;32999;52.412;4.890;2023-05-15T20:42:17;21.77;;;4.15;;
47259;SDS011;32999;52.412;4.890;2023-05-15T20:47:19;14.68;;;2.92;;
47259;SDS011;32999;52.412;4.890;2023-05-15T20:52:20;10.85;;;2.10;;
47259;SDS011;32999;52.412;4.890;2023-05-15T20:57:26;12.95;;;2.35;;
47259;SDS011;32999;52.412;4.890;2023-05-15T21:02:28;11.63;;;2.40;;
47259;SDS011;32999;52.412;4.890;2023-05-15T21:07:30;12.38;;;2.40;;
47259;SDS011;32999;52.412;4.890;2023-05-15T21:12:33;21.88;;;3.50;;
47259;SDS011;32999;52.412;4.890;2023-05-15T21:17:34;18.52;;;2.90;;
47259;SDS011;32999;52.412;4.890;2023-05-15T21:22:36;17.52;;;2.63;;
47259;SDS011;32999;52.412;4.890;2023-05-15T21:27:39;14.13;;;1.70;;
47259;SDS011;32999;52.412;4.890;2023-05-15T21:32:41;9.75;;;1.65;;
47259;SDS011;32999;52.412;4.890;2023-05-15T21:37:43;18.88;;;1.98;;
47259;SDS011;32999;52.412;4.890;2023-05-15T21:42:52;10.85;;;2.72;;
47259;SDS011;32999;52.412;4.890;2023-05-15T21:47:53;10.07;;;1.42;;
47259;SDS011;32999;52.412;4.890;2023-05-15T21:52:55;10.02;;;1.83;;
47259;SDS011;32999;52.412;4.890;2023-05-15T21:58:01;12.77;;;1.45;;
47259;SDS011;32999;52.412;4.890;2023-05-15T22:03:03;10.15;;;1.20;;
47259;SDS011;32999;52.412;4.890;2023-05-15T22:08:14;16.58;;;1.45;;
47259;SDS011;32999;52.412;4.890;2023-05-15T22:13:17;5.07;;;1.20;;
47259;SDS011;32999;52.412;4.890;2023-05-15T22:18:18;12.73;;;1.83;;
47259;SDS011;32999;52.412;4.890;2023-05-15T22:23:20;9.63;;;1.30;;
47259;SDS011;32999;52.412;4.890;2023-05-15T22:28:23;7.13;;;1.27;;
47259;SDS011;32999;52.412;4.890;2023-05-15T22:33:25;10.05;;;1.40;;
47259;SDS011;32999;52.412;4.890;2023-05-15T22:38:27;9.85;;;1.70;;
47259;SDS011;32999;52.412;4.890;2023-05-15T22:43:31;15.30;;;1.70;;
47259;SDS011;32999;52.412;4.890;2023-05-15T22:48:33;11.15;;;1.70;;
47259;SDS011;32999;52.412;4.890;2023-05-15T22:53:36;9.02;;;2.13;;
47259;SDS011;32999;52.412;4.890;2023-05-15T22:58:39;8.65;;;1.45;;
47259;SDS011;32999;52.412;4.890;2023-05-15T23:03:40;19.70;;;2.88;;
47259;SDS011;32999;52.412;4.890;2023-05-15T23:08:42;8.18;;;1.33;;
47259;SDS011;32999;52.412;4.890;2023-05-15T23:13:45;10.98;;;1.35;;
47259;SDS011;32999;52.412;4.890;2023-05-15T23:18:49;11.00;;;2.22;;
47259;SDS011;32999;52.412;4.890;2023-05-15T23:23:51;13.20;;;3.00;;
47259;SDS011;32999;52.412;4.890;2023-05-15T23:28:55;10.93;;;1.23;;
47259;SDS011;32999;52.412;4.890;2023-05-15T23:33:58;7.13;;;1.40;;
47259;SDS011;32999;52.412;4.890;2023-05-15T23:39:00;12.68;;;1.75;;
47259;SDS011;32999;52.412;4.890;2023-05-15T23:44:03;8.38;;;0.80;;
47259;SDS011;32999;52.412;4.890;2023-05-15T23:49:06;20.73;;;3.65;;
47259;SDS011;32999;52.412;4.890;2023-05-15T23:54:08;11.88;;;2.72;;
47259;SDS011;32999;52.412;4.890;2023-05-15T23:59:13;7.97;;;1.35;;
